createdAt,value
2022-12-04T00:01:39.822Z,15.68
2022-12-04T00:04:08.479Z,18.42
2022-12-04T00:06:36.435Z,15.45
2022-12-04T00:09:05.727Z,15.60
2022-12-04T00:11:55.905Z,15.02
2022-12-04T00:14:23.925Z,17.10
2022-12-04T00:16:52.300Z,17.67
2022-12-04T00:19:20.462Z,16.02
2022-12-04T00:21:50.611Z,17.55
2022-12-04T00:24:18.748Z,18.83
2022-12-04T00:26:46.722Z,15.35
2022-12-04T00:29:16.169Z,15.50
2022-12-04T00:31:48.649Z,16.75
2022-12-04T00:34:16.960Z,16.80
2022-12-04T00:36:44.933Z,17.40
2022-12-04T00:39:13.042Z,17.05
2022-12-04T00:41:41.016Z,19.08
2022-12-04T00:44:09.295Z,15.35
2022-12-04T00:46:38.687Z,16.52
2022-12-04T00:49:06.840Z,15.70
2022-12-04T00:51:34.996Z,15.50
2022-12-04T00:54:03.008Z,14.75
2022-12-04T00:56:31.275Z,15.95
2022-12-04T00:59:01.224Z,15.80
2022-12-04T01:01:30.644Z,13.63
2022-12-04T01:04:00.512Z,15.35
2022-12-04T01:06:30.944Z,14.27
2022-12-04T01:09:00.565Z,15.30
2022-12-04T01:11:30.905Z,15.00
2022-12-04T01:13:59.815Z,15.23
2022-12-04T01:16:30.464Z,16.33
2022-12-04T01:19:00.102Z,14.20
2022-12-04T01:21:28.110Z,15.50
2022-12-04T01:23:56.133Z,15.05
2022-12-04T01:26:24.415Z,13.70
2022-12-04T01:29:05.319Z,13.60
2022-12-04T01:31:35.936Z,13.23
2022-12-04T01:34:05.349Z,14.13
2022-12-04T01:36:33.561Z,13.30
2022-12-04T01:39:01.637Z,16.52
2022-12-04T01:41:33.538Z,13.30
2022-12-04T01:44:09.836Z,15.57
2022-12-04T01:46:38.066Z,15.75
2022-12-04T01:49:09.476Z,13.65
2022-12-04T01:51:42.065Z,13.60
2022-12-04T01:54:15.319Z,14.50
2022-12-04T01:56:47.449Z,15.57
2022-12-04T01:59:18.481Z,15.00
2022-12-04T02:01:54.633Z,15.45
2022-12-04T02:04:24.732Z,17.17
2022-12-04T02:06:52.783Z,14.30
2022-12-04T02:09:26.687Z,16.42
2022-12-04T02:12:03.011Z,14.45
2022-12-04T02:14:38.840Z,16.42
2022-12-04T02:17:16.061Z,16.42
2022-12-04T02:20:09.737Z,16.70
2022-12-04T02:22:58.701Z,13.50
2022-12-04T02:25:33.500Z,15.32
2022-12-04T02:28:09.162Z,13.10
2022-12-04T02:30:40.513Z,14.15
2022-12-04T02:33:15.767Z,13.30
2022-12-04T02:35:47.610Z,13.57
2022-12-04T02:38:23.515Z,14.80
2022-12-04T02:40:55.766Z,14.70
2022-12-04T02:43:28.133Z,14.57
2022-12-04T02:46:01.566Z,14.25
2022-12-04T02:48:33.504Z,15.45
2022-12-04T02:51:03.977Z,14.38
2022-12-04T02:53:34.561Z,14.15
2022-12-04T02:56:07.886Z,15.18
2022-12-04T02:58:42.879Z,14.95
2022-12-04T03:01:20.556Z,15.73
2022-12-04T03:03:54.252Z,14.23
2022-12-04T03:06:25.412Z,13.70
2022-12-04T03:08:58.365Z,14.48
2022-12-04T03:11:29.244Z,14.15
2022-12-04T03:14:03.388Z,13.20
2022-12-04T03:16:36.794Z,14.35
2022-12-04T03:19:10.901Z,13.40
2022-12-04T03:21:43.116Z,16.67
2022-12-04T03:24:16.576Z,14.48
2022-12-04T03:26:47.782Z,14.93
2022-12-04T03:29:22.407Z,14.85
2022-12-04T03:31:54.255Z,16.85
2022-12-04T03:34:29.662Z,14.70
2022-12-04T03:37:03.512Z,14.88
2022-12-04T03:39:36.996Z,14.65
2022-12-04T03:42:11.037Z,14.30
2022-12-04T03:44:45.414Z,13.02
2022-12-04T03:47:17.982Z,15.77
2022-12-04T03:50:13.347Z,14.98
2022-12-04T03:52:49.687Z,16.85
2022-12-04T03:55:25.980Z,14.15
2022-12-04T03:58:00.010Z,15.25
2022-12-04T04:00:32.165Z,14.82
2022-12-04T04:03:09.336Z,15.82
2022-12-04T04:05:41.529Z,14.30
2022-12-04T04:08:31.101Z,17.20
2022-12-04T04:11:05.534Z,15.30
2022-12-04T04:14:13.722Z,16.02
2022-12-04T04:17:06.470Z,16.50
2022-12-04T04:19:55.616Z,17.23
2022-12-04T04:22:44.101Z,15.18
2022-12-04T04:25:14.383Z,17.08
2022-12-04T04:27:42.619Z,16.95
2022-12-04T04:30:11.613Z,17.42
2022-12-04T04:32:50.089Z,16.83
2022-12-04T04:35:23.045Z,15.18
2022-12-04T04:38:02.401Z,16.73
2022-12-04T04:40:38.430Z,16.98
2022-12-04T04:43:11.215Z,16.60
2022-12-04T04:45:45.773Z,15.85
2022-12-04T04:48:18.347Z,17.48
2022-12-04T04:50:47.451Z,15.00
2022-12-04T04:53:19.855Z,18.20
2022-12-04T04:55:49.066Z,18.33
2022-12-04T04:58:19.609Z,17.77
2022-12-04T05:00:57.239Z,15.00
2022-12-04T05:03:27.628Z,17.73
2022-12-04T05:05:55.793Z,15.80
2022-12-04T05:08:24.271Z,15.65
2022-12-04T05:10:52.500Z,18.10
2022-12-04T05:13:21.259Z,17.92
2022-12-04T05:15:57.772Z,17.27
2022-12-04T05:18:27.452Z,17.02
2022-12-04T05:20:54.531Z,15.93
2022-12-04T05:23:22.965Z,16.98
2022-12-04T05:25:51.256Z,18.38
2022-12-04T05:28:19.229Z,16.55
2022-12-04T05:30:47.247Z,17.73
2022-12-04T05:33:15.623Z,18.55
2022-12-04T05:35:44.893Z,25.83
2022-12-04T05:38:13.114Z,24.58
2022-12-04T05:40:41.219Z,19.75
2022-12-04T05:43:09.452Z,22.15
2022-12-04T05:45:38.627Z,18.13
2022-12-04T05:48:07.911Z,17.48
2022-12-04T05:50:35.957Z,18.13
2022-12-04T05:53:06.072Z,16.15
2022-12-04T05:55:34.067Z,16.65
2022-12-04T05:58:02.568Z,16.05
2022-12-04T06:00:31.002Z,16.23
2022-12-04T06:03:04.036Z,17.10
2022-12-04T06:05:33.965Z,16.73
2022-12-04T06:08:02.265Z,18.50
2022-12-04T06:10:31.764Z,16.73
2022-12-04T06:12:59.907Z,18.73
2022-12-04T06:15:27.909Z,17.00
2022-12-04T06:17:55.992Z,17.08
2022-12-04T06:20:24.007Z,16.00
2022-12-04T06:22:51.982Z,18.83
2022-12-04T06:25:20.383Z,18.38
2022-12-04T06:27:59.470Z,18.58
2022-12-04T06:30:27.651Z,15.85
2022-12-04T06:32:55.579Z,17.48
2022-12-04T06:35:23.700Z,25.25
2022-12-04T06:37:51.616Z,19.20
2022-12-04T06:40:27.938Z,18.77
2022-12-04T06:42:55.899Z,18.13
2022-12-04T06:45:25.456Z,17.48
2022-12-04T06:47:53.388Z,19.23
2022-12-04T06:50:21.616Z,18.13
2022-12-04T06:52:49.515Z,17.42
2022-12-04T06:55:17.719Z,17.52
2022-12-04T06:57:56.177Z,17.80
2022-12-04T07:00:25.667Z,18.75
2022-12-04T07:02:54.021Z,18.92
2022-12-04T07:05:22.195Z,16.50
2022-12-04T07:07:50.265Z,16.52
2022-12-04T07:10:18.718Z,16.27
2022-12-04T07:12:46.761Z,18.45
2022-12-04T07:15:15.179Z,17.05
2022-12-04T07:17:44.636Z,17.48
2022-12-04T07:20:13.837Z,15.05
2022-12-04T07:22:41.769Z,15.80
2022-12-04T07:25:10.742Z,15.52
2022-12-04T07:27:38.909Z,15.90
2022-12-04T07:30:14.045Z,16.38
2022-12-04T07:32:45.379Z,15.70
2022-12-04T07:35:13.515Z,14.75
2022-12-04T07:37:41.574Z,14.57
2022-12-04T07:40:10.217Z,15.80
2022-12-04T07:42:38.352Z,16.73
2022-12-04T07:45:07.194Z,15.48
2022-12-04T07:47:36.547Z,15.90
2022-12-04T07:50:08.672Z,16.20
2022-12-04T07:52:37.941Z,16.33
2022-12-04T07:55:07.938Z,15.75
2022-12-04T07:57:35.994Z,16.17
2022-12-04T08:00:05.941Z,16.48
2022-12-04T08:02:40.128Z,14.82
2022-12-04T08:05:09.995Z,18.52
2022-12-04T08:07:38.118Z,17.63
2022-12-04T08:10:09.454Z,16.52
2022-12-04T08:12:37.482Z,17.23
2022-12-04T08:15:11.771Z,18.25
2022-12-04T08:17:39.707Z,16.83
2022-12-04T08:20:09.980Z,16.45
2022-12-04T08:22:38.007Z,18.77
2022-12-04T08:25:06.725Z,17.35
2022-12-04T08:27:35.047Z,17.58
2022-12-04T08:30:02.956Z,18.05
2022-12-04T08:32:30.939Z,15.85
2022-12-04T08:34:58.897Z,16.10
2022-12-04T08:37:28.455Z,16.10
2022-12-04T08:39:58.535Z,16.05
2022-12-04T08:42:31.416Z,18.23
2022-12-04T08:44:59.387Z,17.42
2022-12-04T08:47:27.484Z,19.13
2022-12-04T08:49:55.982Z,17.08
2022-12-04T08:52:24.280Z,18.33
2022-12-04T08:54:53.700Z,16.52
2022-12-04T08:57:21.757Z,18.13
2022-12-04T08:59:49.910Z,16.42
2022-12-04T09:02:17.941Z,17.17
2022-12-04T09:04:46.233Z,17.95
2022-12-04T09:07:14.489Z,16.55
2022-12-04T09:09:48.028Z,17.67
2022-12-04T09:12:18.185Z,17.55
2022-12-04T09:14:46.371Z,17.27
2022-12-04T09:17:14.553Z,17.35
2022-12-04T09:19:42.585Z,17.50
2022-12-04T09:22:11.059Z,17.23
2022-12-04T09:24:39.132Z,17.50
2022-12-04T09:27:12.874Z,16.17
2022-12-04T09:29:44.410Z,16.00
2022-12-04T09:32:12.560Z,16.30
2022-12-04T09:34:40.926Z,16.20
2022-12-04T09:37:09.019Z,16.15
2022-12-04T09:39:37.474Z,18.50
2022-12-04T09:42:28.543Z,16.48
2022-12-04T09:45:04.516Z,17.02
2022-12-04T09:47:36.316Z,17.98
2022-12-04T09:50:11.514Z,17.52
2022-12-04T09:52:51.379Z,17.00
2022-12-04T09:55:23.764Z,15.23
2022-12-04T09:58:00.022Z,18.13
2022-12-04T10:00:33.780Z,18.40
2022-12-04T10:03:05.844Z,17.80
2022-12-04T10:05:46.735Z,16.98
2022-12-04T10:08:21.851Z,16.00
2022-12-04T10:11:01.284Z,18.48
2022-12-04T10:13:57.432Z,21.50
2022-12-04T10:16:34.610Z,17.10
2022-12-04T10:19:09.078Z,17.50
2022-12-04T10:21:51.552Z,16.92
2022-12-04T10:24:33.117Z,16.67
2022-12-04T10:27:07.156Z,16.73
2022-12-04T10:29:38.869Z,17.80
2022-12-04T10:32:18.939Z,19.10
2022-12-04T10:34:53.822Z,17.08
2022-12-04T10:37:23.680Z,18.25
2022-12-04T10:39:56.997Z,18.45
2022-12-04T10:42:30.671Z,17.35
2022-12-04T10:44:58.981Z,16.88
2022-12-04T10:47:29.271Z,17.70
2022-12-04T10:50:01.577Z,16.55
2022-12-04T10:52:29.832Z,17.73
2022-12-04T10:54:59.920Z,16.67
2022-12-04T10:57:37.864Z,17.55
2022-12-04T11:00:25.157Z,16.20
2022-12-04T11:02:56.448Z,18.10
2022-12-04T11:05:28.235Z,18.50
2022-12-04T11:07:57.683Z,17.90
2022-12-04T11:10:31.965Z,16.92
2022-12-04T11:13:02.615Z,17.60
2022-12-04T11:15:30.905Z,16.40
2022-12-04T11:18:10.564Z,16.33
2022-12-04T11:20:40.766Z,17.90
2022-12-04T11:23:17.309Z,18.65
2022-12-04T11:25:47.994Z,17.35
2022-12-04T11:28:39.867Z,16.63
2022-12-04T11:31:10.409Z,15.75
2022-12-04T11:33:46.195Z,16.33
2022-12-04T11:36:21.953Z,15.98
2022-12-04T11:38:51.840Z,17.08
2022-12-04T11:41:28.663Z,17.25
2022-12-04T11:44:00.165Z,17.83
2022-12-04T11:46:31.759Z,16.45
2022-12-04T11:49:03.295Z,19.33
2022-12-04T11:51:44.475Z,16.75
2022-12-04T11:54:24.884Z,14.65
2022-12-04T11:57:06.621Z,16.55
2022-12-04T12:00:00.811Z,16.98
2022-12-04T12:02:45.937Z,19.30
2022-12-04T12:05:34.959Z,16.55
2022-12-04T12:08:34.539Z,16.00
2022-12-04T12:11:13.536Z,13.30
2022-12-04T12:13:53.072Z,14.63
2022-12-04T12:16:29.265Z,13.70
2022-12-04T12:19:12.667Z,14.00
2022-12-04T12:21:49.266Z,13.15
2022-12-04T12:24:26.868Z,15.07
2022-12-04T12:27:05.127Z,14.27
2022-12-04T12:29:44.656Z,14.50
2022-12-04T12:32:24.538Z,15.25
2022-12-04T12:34:56.599Z,13.57
2022-12-04T12:37:31.204Z,15.13
2022-12-04T12:40:04.109Z,14.25
2022-12-04T12:42:37.299Z,14.80
2022-12-04T12:45:08.908Z,14.07
2022-12-04T12:47:42.366Z,15.00
2022-12-04T12:50:17.521Z,18.00
2022-12-04T12:52:50.899Z,36.20
2022-12-04T12:55:23.654Z,15.23
2022-12-04T12:57:59.814Z,16.45
2022-12-04T13:00:31.642Z,15.77
2022-12-04T13:03:04.699Z,13.82
2022-12-04T13:05:39.145Z,14.02
2022-12-04T13:08:18.247Z,15.10
2022-12-04T13:11:14.631Z,15.15
2022-12-04T13:13:47.284Z,13.88
2022-12-04T13:16:20.770Z,14.82
2022-12-04T13:18:56.241Z,13.77
2022-12-04T13:21:33.161Z,14.40
2022-12-04T13:24:28.239Z,13.57
2022-12-04T13:27:03.332Z,13.50
2022-12-04T13:29:45.893Z,12.70
2022-12-04T13:32:38.564Z,15.43
2022-12-04T13:35:16.581Z,13.75
2022-12-04T13:38:00.055Z,15.48
2022-12-04T13:40:41.223Z,15.55
2022-12-04T13:43:25.979Z,14.18
2022-12-04T13:45:56.415Z,14.00
2022-12-04T13:48:36.525Z,14.48
2022-12-04T13:51:34.398Z,15.23
2022-12-04T13:54:20.580Z,13.23
2022-12-04T13:56:52.407Z,14.18
2022-12-04T13:59:39.353Z,15.05
2022-12-04T14:02:27.826Z,13.25
2022-12-04T14:05:00.072Z,14.68
2022-12-04T14:07:32.329Z,13.80
2022-12-04T14:10:04.918Z,12.73
2022-12-04T14:12:38.365Z,12.35
2022-12-04T14:15:08.825Z,12.25
2022-12-04T14:17:39.344Z,15.15
2022-12-04T14:20:23.026Z,17.10
2022-12-04T14:22:51.673Z,13.30
2022-12-04T14:25:35.622Z,14.60
2022-12-04T14:28:24.454Z,13.75
2022-12-04T14:31:07.569Z,14.10
2022-12-04T14:33:40.566Z,11.85
2022-12-04T14:36:12.580Z,14.20
2022-12-04T14:38:41.403Z,12.98
2022-12-04T14:41:09.553Z,14.27
2022-12-04T14:43:40.617Z,14.02
2022-12-04T14:46:19.307Z,15.18
2022-12-04T14:48:56.797Z,17.02
2022-12-04T14:51:32.580Z,13.73
2022-12-04T14:54:11.549Z,19.77
2022-12-04T14:56:53.064Z,16.08
2022-12-04T14:59:25.368Z,16.90
2022-12-04T15:01:56.015Z,14.32
2022-12-04T15:04:27.704Z,13.85
2022-12-04T15:07:00.230Z,13.02
2022-12-04T15:09:50.293Z,16.85
2022-12-04T15:12:36.313Z,14.43
2022-12-04T15:15:14.837Z,13.40
2022-12-04T15:17:43.059Z,12.80
2022-12-04T15:20:18.726Z,12.88
2022-12-04T15:22:47.236Z,15.40
2022-12-04T15:25:19.518Z,14.70
2022-12-04T15:27:49.710Z,13.07
2022-12-04T15:30:22.124Z,12.60
2022-12-04T15:32:52.839Z,11.38
2022-12-04T15:35:27.364Z,13.40
2022-12-04T15:37:55.989Z,13.32
2022-12-04T15:40:25.641Z,12.57
2022-12-04T15:42:54.346Z,13.27
2022-12-04T15:45:34.789Z,13.38
2022-12-04T15:48:03.534Z,13.48
2022-12-04T15:50:32.467Z,14.00
2022-12-04T15:53:04.822Z,16.45
2022-12-04T15:55:38.100Z,16.60
2022-12-04T15:58:09.146Z,18.48
2022-12-04T16:00:40.738Z,16.10
2022-12-04T16:03:24.520Z,17.83
2022-12-04T16:06:07.446Z,16.63
2022-12-04T16:08:38.264Z,17.95
2022-12-04T16:11:08.694Z,15.82
2022-12-04T16:13:38.547Z,15.73
2022-12-04T16:16:13.618Z,19.30
2022-12-04T16:18:43.261Z,17.17
2022-12-04T16:21:16.596Z,17.45
2022-12-04T16:23:45.011Z,16.63
2022-12-04T16:26:14.205Z,17.10
2022-12-04T16:28:43.048Z,17.75
2022-12-04T16:31:15.023Z,17.70
2022-12-04T16:33:43.349Z,19.73
2022-12-04T16:36:11.845Z,18.95
2022-12-04T16:38:39.972Z,18.25
2022-12-04T16:41:15.399Z,19.25
2022-12-04T16:43:43.889Z,16.77
2022-12-04T16:46:15.704Z,15.80
2022-12-04T16:48:44.200Z,18.05
2022-12-04T16:51:17.810Z,17.38
2022-12-04T16:53:46.007Z,18.65
2022-12-04T16:56:14.576Z,18.75
2022-12-04T16:58:43.783Z,16.95
2022-12-04T17:01:22.744Z,15.50
2022-12-04T17:03:51.774Z,13.65
2022-12-04T17:06:20.152Z,14.00
2022-12-04T17:08:48.460Z,14.20
2022-12-04T17:11:18.356Z,16.45
2022-12-04T17:13:46.641Z,13.73
2022-12-04T17:16:19.582Z,17.00
2022-12-04T17:18:48.289Z,14.85
2022-12-04T17:21:16.404Z,16.90
2022-12-04T17:23:45.077Z,13.68
2022-12-04T17:26:15.279Z,14.85
2022-12-04T17:28:43.592Z,13.95
2022-12-04T17:31:18.762Z,14.85
2022-12-04T17:33:51.271Z,14.20
2022-12-04T17:36:25.760Z,12.40
2022-12-04T17:39:14.024Z,14.05
2022-12-04T17:41:46.435Z,12.95
2022-12-04T17:44:17.806Z,12.40
2022-12-04T17:46:58.794Z,12.43
2022-12-04T17:49:30.195Z,12.30
2022-12-04T17:52:00.698Z,13.55
2022-12-04T17:54:34.510Z,12.40
2022-12-04T17:57:06.942Z,12.05
2022-12-04T17:59:38.278Z,11.90
2022-12-04T18:02:13.167Z,10.43
2022-12-04T18:04:45.072Z,12.65
2022-12-04T18:07:15.507Z,11.75
2022-12-04T18:09:45.784Z,10.25
2022-12-04T18:12:18.358Z,13.45
2022-12-04T18:14:50.855Z,13.00
2022-12-04T18:17:23.898Z,13.93
2022-12-04T18:19:53.823Z,14.52
2022-12-04T18:22:24.356Z,14.20
2022-12-04T18:24:53.114Z,12.85
2022-12-04T18:27:21.264Z,12.93
2022-12-04T18:29:49.515Z,13.70
2022-12-04T18:32:17.933Z,13.23
2022-12-04T18:34:47.479Z,12.00
2022-12-04T18:37:15.909Z,10.52
2022-12-04T18:39:44.128Z,13.23
2022-12-04T18:42:12.264Z,12.63
2022-12-04T18:44:40.766Z,11.05
2022-12-04T18:47:09.146Z,12.15
2022-12-04T18:49:37.979Z,11.35
2022-12-04T18:52:07.930Z,10.93
2022-12-04T18:54:36.002Z,11.90
2022-12-04T18:57:04.228Z,10.00
2022-12-04T18:59:33.109Z,11.70
2022-12-04T19:02:01.297Z,10.90
2022-12-04T19:04:33.080Z,12.57
2022-12-04T19:07:01.444Z,11.88
2022-12-04T19:10:02.619Z,12.48
2022-12-04T19:12:20.540Z,13.02
2022-12-04T19:14:48.797Z,14.02
2022-12-04T19:17:17.120Z,12.75
2022-12-04T19:19:45.264Z,13.57
2022-12-04T19:22:13.787Z,13.35
2022-12-04T19:24:43.648Z,12.75
2022-12-04T19:27:18.476Z,13.85
2022-12-04T19:29:52.245Z,13.32
2022-12-04T19:32:23.906Z,13.90
2022-12-04T19:35:25.692Z,12.15
2022-12-04T19:38:17.695Z,13.55
2022-12-04T19:40:47.498Z,13.10
2022-12-04T19:43:17.890Z,14.35
2022-12-04T19:45:57.594Z,14.88
2022-12-04T19:48:28.875Z,12.27
2022-12-04T19:51:04.606Z,13.45
2022-12-04T19:53:40.707Z,12.98
2022-12-04T19:56:15.886Z,11.40
2022-12-04T19:58:46.214Z,13.30
2022-12-04T20:01:18.060Z,12.32
2022-12-04T20:03:47.824Z,12.60
2022-12-04T20:06:20.598Z,12.45
2022-12-04T20:08:59.199Z,14.20
2022-12-04T20:11:31.911Z,11.90
2022-12-04T20:14:03.668Z,13.20
2022-12-04T20:16:36.760Z,13.13
2022-12-04T20:19:10.800Z,12.52
2022-12-04T20:21:42.301Z,13.52
2022-12-04T20:24:16.038Z,13.52
2022-12-04T20:26:49.040Z,15.15
2022-12-04T20:29:22.786Z,13.57
2022-12-04T20:31:55.451Z,14.70
2022-12-04T20:34:27.172Z,15.15
2022-12-04T20:36:58.430Z,13.45
2022-12-04T20:39:32.748Z,15.90
2022-12-04T20:42:06.453Z,12.93
2022-12-04T20:44:37.482Z,15.95
2022-12-04T20:47:12.477Z,13.40
2022-12-04T20:49:44.583Z,14.73
2022-12-04T20:52:13.698Z,13.90
2022-12-04T20:54:41.975Z,13.43
2022-12-04T20:57:11.857Z,13.98
2022-12-04T20:59:39.948Z,13.05
2022-12-04T21:02:08.028Z,13.90
2022-12-04T21:04:38.727Z,14.35
2022-12-04T21:07:07.236Z,13.13
2022-12-04T21:09:35.448Z,13.00
2022-12-04T21:12:24.265Z,14.27
2022-12-04T21:15:11.001Z,15.77
2022-12-04T21:17:39.283Z,14.00
2022-12-04T21:20:09.565Z,12.25
2022-12-04T21:22:37.949Z,13.00
2022-12-04T21:25:08.631Z,14.50
2022-12-04T21:27:37.080Z,13.23
2022-12-04T21:30:08.132Z,13.82
2022-12-04T21:32:36.275Z,11.85
2022-12-04T21:35:16.511Z,14.35
2022-12-04T21:37:44.588Z,12.32
2022-12-04T21:40:21.514Z,14.18
2022-12-04T21:42:49.639Z,13.70
2022-12-04T21:45:19.294Z,13.25
2022-12-04T21:47:47.625Z,15.80
2022-12-04T21:50:15.888Z,11.50
2022-12-04T21:52:44.050Z,14.50
2022-12-04T21:55:12.191Z,14.30
2022-12-04T21:57:40.917Z,12.73
2022-12-04T22:00:10.282Z,14.18
2022-12-04T22:02:40.068Z,12.85
2022-12-04T22:05:08.980Z,12.20
2022-12-04T22:07:37.225Z,12.63
2022-12-04T22:10:10.876Z,11.50
2022-12-04T22:12:50.539Z,11.35
2022-12-04T22:15:19.232Z,12.30
2022-12-04T22:17:48.692Z,13.15
2022-12-04T22:20:27.246Z,10.93
2022-12-04T22:22:55.385Z,11.48
2022-12-04T22:25:23.557Z,11.90
2022-12-04T22:27:53.577Z,10.73
2022-12-04T22:30:21.772Z,12.63
2022-12-04T22:32:51.668Z,10.43
2022-12-04T22:35:20.117Z,11.27
2022-12-04T22:37:49.269Z,12.00
2022-12-04T22:40:17.698Z,11.10
2022-12-04T22:42:46.092Z,10.35
2022-12-04T22:45:15.599Z,10.20
2022-12-04T22:47:43.896Z,12.85
2022-12-04T22:50:13.609Z,10.30
2022-12-04T22:52:41.863Z,11.77
2022-12-04T22:55:10.403Z,11.63
2022-12-04T22:57:38.557Z,11.52
2022-12-04T23:00:09.372Z,12.38
2022-12-04T23:02:43.461Z,12.90
2022-12-04T23:05:13.161Z,10.25
2022-12-04T23:07:41.448Z,10.63
2022-12-04T23:10:10.130Z,12.23
2022-12-04T23:12:38.260Z,11.25
2022-12-04T23:15:22.867Z,11.57
2022-12-04T23:17:51.140Z,12.48
2022-12-04T23:20:20.735Z,11.88
2022-12-04T23:22:54.711Z,12.93
2022-12-04T23:25:23.160Z,11.55
2022-12-04T23:27:51.713Z,13.15
2022-12-04T23:30:24.846Z,11.25
2022-12-04T23:32:55.869Z,12.38
2022-12-04T23:35:26.080Z,13.30
2022-12-04T23:37:54.213Z,12.95
2022-12-04T23:40:28.692Z,11.82
2022-12-04T23:42:56.910Z,11.82
2022-12-04T23:45:25.098Z,11.23
2022-12-04T23:47:53.896Z,10.90
2022-12-04T23:50:21.938Z,11.15
2022-12-04T23:52:51.410Z,11.15
2022-12-04T23:55:19.532Z,11.65
2022-12-04T23:57:47.638Z,12.10
